sensor_id;sensor_type;location;lat;lon;timestamp;P1;durP1;ratioP1;P2;durP2;ratioP2
9115;SDS011;4593;53.652;10.168;2022-12-24T00:00:14;12.90;;;5.70;;
9115;SDS011;4593;53.652;10.168;2022-12-24T00:02:40;17.73;;;6.37;;
9115;SDS011;4593;53.652;10.168;2022-12-24T00:05:07;15.00;;;6.40;;
9115;SDS011;4593;53.652;10.168;2022-12-24T00:07:33;14.73;;;6.13;;
9115;SDS011;4593;53.652;10.168;2022-12-24T00:09:59;8.80;;;5.60;;
9115;SDS011;4593;53.652;10.168;2022-12-24T00:12:25;11.93;;;6.13;;
9115;SDS011;4593;53.652;10.168;2022-12-24T00:14:51;10.23;;;6.27;;
9115;SDS011;4593;53.652;10.168;2022-12-24T00:17:17;16.97;;;6.00;;
9115;SDS011;4593;53.652;10.168;2022-12-24T00:19:43;10.03;;;5.60;;
9115;SDS011;4593;53.652;10.168;2022-12-24T00:22:09;15.10;;;6.47;;
9115;SDS011;4593;53.652;10.168;2022-12-24T00:24:35;10.00;;;4.60;;
9115;SDS011;4593;53.652;10.168;2022-12-24T00:27:01;11.80;;;5.87;;
9115;SDS011;4593;53.652;10.168;2022-12-24T00:29:27;10.00;;;5.17;;
9115;SDS011;4593;53.652;10.168;2022-12-24T00:31:53;14.43;;;6.73;;
9115;SDS011;4593;53.652;10.168;2022-12-24T00:34:21;6.87;;;4.90;;
9115;SDS011;4593;53.652;10.168;2022-12-24T00:36:47;12.43;;;5.73;;
9115;SDS011;4593;53.652;10.168;2022-12-24T00:39:13;22.07;;;6.53;;
9115;SDS011;4593;53.652;10.168;2022-12-24T00:41:39;10.63;;;6.30;;
9115;SDS011;4593;53.652;10.168;2022-12-24T00:44:06;8.57;;;5.47;;
9115;SDS011;4593;53.652;10.168;2022-12-24T00:46:37;8.57;;;5.03;;
9115;SDS011;4593;53.652;10.168;2022-12-24T00:49:03;13.43;;;6.13;;
9115;SDS011;4593;53.652;10.168;2022-12-24T00:51:30;16.63;;;5.23;;
9115;SDS011;4593;53.652;10.168;2022-12-24T00:53:56;19.73;;;6.50;;
9115;SDS011;4593;53.652;10.168;2022-12-24T00:56:22;18.40;;;6.87;;
9115;SDS011;4593;53.652;10.168;2022-12-24T00:58:48;13.33;;;5.63;;
9115;SDS011;4593;53.652;10.168;2022-12-24T01:01:14;16.20;;;7.43;;
9115;SDS011;4593;53.652;10.168;2022-12-24T01:03:40;12.33;;;5.97;;
9115;SDS011;4593;53.652;10.168;2022-12-24T01:06:13;13.47;;;5.17;;
9115;SDS011;4593;53.652;10.168;2022-12-24T01:08:41;17.80;;;6.53;;
9115;SDS011;4593;53.652;10.168;2022-12-24T01:11:08;16.30;;;6.03;;
9115;SDS011;4593;53.652;10.168;2022-12-24T01:13:34;16.53;;;5.40;;
9115;SDS011;4593;53.652;10.168;2022-12-24T01:16:00;18.10;;;6.07;;
9115;SDS011;4593;53.652;10.168;2022-12-24T01:18:27;13.60;;;6.70;;
9115;SDS011;4593;53.652;10.168;2022-12-24T01:20:56;17.97;;;7.17;;
9115;SDS011;4593;53.652;10.168;2022-12-24T01:23:24;11.10;;;6.10;;
9115;SDS011;4593;53.652;10.168;2022-12-24T01:25:50;14.97;;;6.53;;
9115;SDS011;4593;53.652;10.168;2022-12-24T01:28:16;16.73;;;6.27;;
9115;SDS011;4593;53.652;10.168;2022-12-24T01:30:42;14.33;;;5.87;;
9115;SDS011;4593;53.652;10.168;2022-12-24T01:33:08;17.60;;;5.73;;
9115;SDS011;4593;53.652;10.168;2022-12-24T01:35:38;15.27;;;5.83;;
9115;SDS011;4593;53.652;10.168;2022-12-24T01:38:04;20.93;;;6.67;;
9115;SDS011;4593;53.652;10.168;2022-12-24T01:40:30;9.37;;;6.27;;
9115;SDS011;4593;53.652;10.168;2022-12-24T01:43:19;12.63;;;6.20;;
9115;SDS011;4593;53.652;10.168;2022-12-24T01:48:16;8.67;;;5.40;;
9115;SDS011;4593;53.652;10.168;2022-12-24T01:50:47;11.13;;;6.27;;
9115;SDS011;4593;53.652;10.168;2022-12-24T01:53:15;14.43;;;4.30;;
9115;SDS011;4593;53.652;10.168;2022-12-24T01:55:42;16.23;;;5.43;;
9115;SDS011;4593;53.652;10.168;2022-12-24T01:58:10;12.90;;;5.90;;
9115;SDS011;4593;53.652;10.168;2022-12-24T02:00:38;12.83;;;5.30;;
9115;SDS011;4593;53.652;10.168;2022-12-24T02:03:04;14.17;;;6.53;;
9115;SDS011;4593;53.652;10.168;2022-12-24T02:05:51;10.53;;;5.93;;
9115;SDS011;4593;53.652;10.168;2022-12-24T02:08:19;10.83;;;5.23;;
9115;SDS011;4593;53.652;10.168;2022-12-24T02:10:46;10.63;;;5.33;;
9115;SDS011;4593;53.652;10.168;2022-12-24T02:13:13;9.77;;;4.70;;
9115;SDS011;4593;53.652;10.168;2022-12-24T02:15:44;10.43;;;5.63;;
9115;SDS011;4593;53.652;10.168;2022-12-24T02:18:37;13.77;;;6.20;;
9115;SDS011;4593;53.652;10.168;2022-12-24T02:32:20;10.33;;;4.43;;
9115;SDS011;4593;53.652;10.168;2022-12-24T02:35:03;11.87;;;5.13;;
9115;SDS011;4593;53.652;10.168;2022-12-24T02:37:31;12.87;;;5.50;;
9115;SDS011;4593;53.652;10.168;2022-12-24T02:40:02;8.20;;;5.13;;
9115;SDS011;4593;53.652;10.168;2022-12-24T02:42:31;8.23;;;5.23;;
9115;SDS011;4593;53.652;10.168;2022-12-24T02:45:03;12.83;;;5.80;;
9115;SDS011;4593;53.652;10.168;2022-12-24T02:47:30;10.43;;;4.70;;
9115;SDS011;4593;53.652;10.168;2022-12-24T02:49:59;11.13;;;4.97;;
9115;SDS011;4593;53.652;10.168;2022-12-24T02:52:27;14.73;;;5.23;;
9115;SDS011;4593;53.652;10.168;2022-12-24T02:54:53;7.40;;;4.47;;
9115;SDS011;4593;53.652;10.168;2022-12-24T02:57:23;8.47;;;5.13;;
9115;SDS011;4593;53.652;10.168;2022-12-24T02:59:58;8.23;;;5.30;;
9115;SDS011;4593;53.652;10.168;2022-12-24T03:07:35;7.70;;;4.00;;
9115;SDS011;4593;53.652;10.168;2022-12-24T03:13:02;12.67;;;5.03;;
9115;SDS011;4593;53.652;10.168;2022-12-24T03:15:29;9.53;;;4.90;;
9115;SDS011;4593;53.652;10.168;2022-12-24T03:17:57;8.30;;;4.90;;
9115;SDS011;4593;53.652;10.168;2022-12-24T03:20:26;6.10;;;4.70;;
9115;SDS011;4593;53.652;10.168;2022-12-24T03:22:58;5.63;;;3.80;;
9115;SDS011;4593;53.652;10.168;2022-12-24T03:25:24;9.30;;;4.97;;
9115;SDS011;4593;53.652;10.168;2022-12-24T03:27:51;9.47;;;4.87;;
9115;SDS011;4593;53.652;10.168;2022-12-24T03:30:17;8.37;;;4.80;;
9115;SDS011;4593;53.652;10.168;2022-12-24T03:32:43;7.57;;;4.70;;
9115;SDS011;4593;53.652;10.168;2022-12-24T03:35:09;11.87;;;4.87;;
9115;SDS011;4593;53.652;10.168;2022-12-24T03:37:35;5.47;;;4.30;;
9115;SDS011;4593;53.652;10.168;2022-12-24T03:40:02;9.07;;;4.50;;
9115;SDS011;4593;53.652;10.168;2022-12-24T03:42:29;6.20;;;4.53;;
9115;SDS011;4593;53.652;10.168;2022-12-24T03:44:55;8.27;;;5.10;;
9115;SDS011;4593;53.652;10.168;2022-12-24T03:47:20;8.97;;;5.10;;
9115;SDS011;4593;53.652;10.168;2022-12-24T03:49:46;10.63;;;4.63;;
9115;SDS011;4593;53.652;10.168;2022-12-24T03:52:12;8.87;;;4.87;;
9115;SDS011;4593;53.652;10.168;2022-12-24T03:54:38;6.73;;;4.13;;
9115;SDS011;4593;53.652;10.168;2022-12-24T03:57:03;8.70;;;4.70;;
9115;SDS011;4593;53.652;10.168;2022-12-24T03:59:29;8.27;;;4.20;;
9115;SDS011;4593;53.652;10.168;2022-12-24T04:01:55;6.30;;;4.33;;
9115;SDS011;4593;53.652;10.168;2022-12-24T04:04:21;6.93;;;4.47;;
9115;SDS011;4593;53.652;10.168;2022-12-24T04:06:46;7.33;;;4.77;;
9115;SDS011;4593;53.652;10.168;2022-12-24T04:09:12;10.10;;;4.00;;
9115;SDS011;4593;53.652;10.168;2022-12-24T04:11:38;6.97;;;4.43;;
9115;SDS011;4593;53.652;10.168;2022-12-24T04:14:04;7.13;;;4.53;;
9115;SDS011;4593;53.652;10.168;2022-12-24T04:16:30;9.57;;;4.93;;
9115;SDS011;4593;53.652;10.168;2022-12-24T04:18:56;20.00;;;5.43;;
9115;SDS011;4593;53.652;10.168;2022-12-24T04:21:22;7.87;;;3.83;;
9115;SDS011;4593;53.652;10.168;2022-12-24T04:23:48;6.50;;;3.97;;
9115;SDS011;4593;53.652;10.168;2022-12-24T04:26:14;6.77;;;4.53;;
9115;SDS011;4593;53.652;10.168;2022-12-24T04:28:41;9.73;;;4.73;;
9115;SDS011;4593;53.652;10.168;2022-12-24T04:31:09;10.43;;;4.50;;
9115;SDS011;4593;53.652;10.168;2022-12-24T04:33:37;8.90;;;4.17;;
9115;SDS011;4593;53.652;10.168;2022-12-24T04:36:04;7.10;;;4.03;;
9115;SDS011;4593;53.652;10.168;2022-12-24T04:38:31;8.70;;;4.17;;
9115;SDS011;4593;53.652;10.168;2022-12-24T04:41:01;6.67;;;4.00;;
9115;SDS011;4593;53.652;10.168;2022-12-24T04:43:27;6.73;;;4.17;;
9115;SDS011;4593;53.652;10.168;2022-12-24T04:45:54;6.83;;;3.23;;
9115;SDS011;4593;53.652;10.168;2022-12-24T04:48:20;6.80;;;4.47;;
9115;SDS011;4593;53.652;10.168;2022-12-24T04:50:46;5.53;;;3.87;;
9115;SDS011;4593;53.652;10.168;2022-12-24T04:53:12;10.90;;;5.03;;
9115;SDS011;4593;53.652;10.168;2022-12-24T04:55:44;8.33;;;5.20;;
9115;SDS011;4593;53.652;10.168;2022-12-24T04:58:10;8.43;;;4.53;;
9115;SDS011;4593;53.652;10.168;2022-12-24T05:00:37;10.50;;;4.67;;
9115;SDS011;4593;53.652;10.168;2022-12-24T05:03:09;8.23;;;4.27;;
9115;SDS011;4593;53.652;10.168;2022-12-24T05:05:35;11.77;;;4.33;;
9115;SDS011;4593;53.652;10.168;2022-12-24T05:08:00;8.23;;;4.93;;
9115;SDS011;4593;53.652;10.168;2022-12-24T05:10:26;8.20;;;3.87;;
9115;SDS011;4593;53.652;10.168;2022-12-24T05:12:52;8.67;;;4.53;;
9115;SDS011;4593;53.652;10.168;2022-12-24T05:15:18;6.77;;;4.50;;
9115;SDS011;4593;53.652;10.168;2022-12-24T05:17:44;9.10;;;4.70;;
9115;SDS011;4593;53.652;10.168;2022-12-24T05:20:10;6.23;;;4.73;;
9115;SDS011;4593;53.652;10.168;2022-12-24T05:22:36;11.37;;;4.30;;
9115;SDS011;4593;53.652;10.168;2022-12-24T05:25:21;6.80;;;3.83;;
9115;SDS011;4593;53.652;10.168;2022-12-24T05:28:05;7.90;;;4.37;;
9115;SDS011;4593;53.652;10.168;2022-12-24T05:30:31;7.80;;;4.60;;
9115;SDS011;4593;53.652;10.168;2022-12-24T05:32:57;5.97;;;4.13;;
9115;SDS011;4593;53.652;10.168;2022-12-24T05:35:22;7.13;;;4.63;;
9115;SDS011;4593;53.652;10.168;2022-12-24T05:37:48;8.53;;;3.90;;
9115;SDS011;4593;53.652;10.168;2022-12-24T05:40:14;5.67;;;4.00;;
9115;SDS011;4593;53.652;10.168;2022-12-24T05:42:40;7.90;;;4.07;;
9115;SDS011;4593;53.652;10.168;2022-12-24T05:45:07;7.40;;;4.10;;
9115;SDS011;4593;53.652;10.168;2022-12-24T05:47:33;6.13;;;4.00;;
9115;SDS011;4593;53.652;10.168;2022-12-24T05:49:59;9.97;;;4.43;;
9115;SDS011;4593;53.652;10.168;2022-12-24T05:52:25;6.77;;;4.07;;
9115;SDS011;4593;53.652;10.168;2022-12-24T05:54:51;4.93;;;4.03;;
9115;SDS011;4593;53.652;10.168;2022-12-24T05:57:17;10.10;;;3.57;;
9115;SDS011;4593;53.652;10.168;2022-12-24T05:59:43;8.67;;;4.30;;
9115;SDS011;4593;53.652;10.168;2022-12-24T06:02:09;6.97;;;3.93;;
9115;SDS011;4593;53.652;10.168;2022-12-24T06:04:35;6.13;;;3.57;;
9115;SDS011;4593;53.652;10.168;2022-12-24T06:07:01;9.73;;;4.47;;
9115;SDS011;4593;53.652;10.168;2022-12-24T06:09:27;5.40;;;4.23;;
9115;SDS011;4593;53.652;10.168;2022-12-24T06:11:53;5.67;;;3.97;;
9115;SDS011;4593;53.652;10.168;2022-12-24T06:14:19;13.07;;;4.87;;
9115;SDS011;4593;53.652;10.168;2022-12-24T06:16:45;6.03;;;4.20;;
9115;SDS011;4593;53.652;10.168;2022-12-24T06:19:11;9.33;;;4.03;;
9115;SDS011;4593;53.652;10.168;2022-12-24T06:21:37;7.80;;;4.13;;
9115;SDS011;4593;53.652;10.168;2022-12-24T06:24:04;5.63;;;3.77;;
9115;SDS011;4593;53.652;10.168;2022-12-24T06:26:30;6.00;;;3.90;;
9115;SDS011;4593;53.652;10.168;2022-12-24T06:28:55;6.97;;;4.00;;
9115;SDS011;4593;53.652;10.168;2022-12-24T06:31:22;5.53;;;4.03;;
9115;SDS011;4593;53.652;10.168;2022-12-24T06:33:48;7.33;;;4.23;;
9115;SDS011;4593;53.652;10.168;2022-12-24T06:36:15;5.80;;;3.50;;
9115;SDS011;4593;53.652;10.168;2022-12-24T06:38:46;11.87;;;4.37;;
9115;SDS011;4593;53.652;10.168;2022-12-24T06:41:12;8.10;;;4.37;;
9115;SDS011;4593;53.652;10.168;2022-12-24T06:43:39;6.33;;;4.10;;
9115;SDS011;4593;53.652;10.168;2022-12-24T06:46:08;6.57;;;4.00;;
9115;SDS011;4593;53.652;10.168;2022-12-24T06:48:34;8.03;;;3.87;;
9115;SDS011;4593;53.652;10.168;2022-12-24T06:51:00;3.43;;;3.13;;
9115;SDS011;4593;53.652;10.168;2022-12-24T06:53:27;4.53;;;3.67;;
9115;SDS011;4593;53.652;10.168;2022-12-24T06:55:59;8.10;;;3.70;;
9115;SDS011;4593;53.652;10.168;2022-12-24T06:58:27;6.23;;;3.57;;
9115;SDS011;4593;53.652;10.168;2022-12-24T07:00:53;6.63;;;3.23;;
9115;SDS011;4593;53.652;10.168;2022-12-24T07:03:19;7.83;;;3.20;;
9115;SDS011;4593;53.652;10.168;2022-12-24T07:05:45;5.33;;;3.27;;
9115;SDS011;4593;53.652;10.168;2022-12-24T07:08:11;6.40;;;3.57;;
9115;SDS011;4593;53.652;10.168;2022-12-24T07:10:37;4.73;;;3.67;;
9115;SDS011;4593;53.652;10.168;2022-12-24T07:13:03;3.40;;;2.63;;
9115;SDS011;4593;53.652;10.168;2022-12-24T07:15:29;3.30;;;2.90;;
9115;SDS011;4593;53.652;10.168;2022-12-24T07:17:55;4.57;;;2.93;;
9115;SDS011;4593;53.652;10.168;2022-12-24T07:20:21;2.63;;;2.43;;
9115;SDS011;4593;53.652;10.168;2022-12-24T07:22:47;4.70;;;3.10;;
9115;SDS011;4593;53.652;10.168;2022-12-24T07:25:13;4.57;;;3.07;;
9115;SDS011;4593;53.652;10.168;2022-12-24T07:27:39;4.63;;;3.03;;
9115;SDS011;4593;53.652;10.168;2022-12-24T07:30:05;4.33;;;3.30;;
9115;SDS011;4593;53.652;10.168;2022-12-24T07:32:32;4.50;;;2.90;;
9115;SDS011;4593;53.652;10.168;2022-12-24T07:34:58;5.47;;;3.77;;
9115;SDS011;4593;53.652;10.168;2022-12-24T07:37:24;4.70;;;3.80;;
9115;SDS011;4593;53.652;10.168;2022-12-24T07:39:50;3.43;;;2.97;;
9115;SDS011;4593;53.652;10.168;2022-12-24T07:42:16;2.80;;;2.60;;
9115;SDS011;4593;53.652;10.168;2022-12-24T07:44:42;3.43;;;2.97;;
9115;SDS011;4593;53.652;10.168;2022-12-24T07:47:08;4.13;;;3.03;;
9115;SDS011;4593;53.652;10.168;2022-12-24T07:49:34;3.33;;;2.83;;
9115;SDS011;4593;53.652;10.168;2022-12-24T07:52:00;4.17;;;2.87;;
9115;SDS011;4593;53.652;10.168;2022-12-24T07:54:26;7.20;;;3.43;;
9115;SDS011;4593;53.652;10.168;2022-12-24T07:56:52;5.37;;;4.00;;
9115;SDS011;4593;53.652;10.168;2022-12-24T07:59:18;3.77;;;2.87;;
9115;SDS011;4593;53.652;10.168;2022-12-24T08:01:45;3.60;;;3.20;;
9115;SDS011;4593;53.652;10.168;2022-12-24T08:04:10;4.20;;;2.87;;
9115;SDS011;4593;53.652;10.168;2022-12-24T08:06:38;3.93;;;2.57;;
9115;SDS011;4593;53.652;10.168;2022-12-24T08:09:04;6.70;;;3.00;;
9115;SDS011;4593;53.652;10.168;2022-12-24T08:11:30;5.50;;;2.70;;
9115;SDS011;4593;53.652;10.168;2022-12-24T08:13:56;3.70;;;3.17;;
9115;SDS011;4593;53.652;10.168;2022-12-24T08:16:22;4.80;;;3.23;;
9115;SDS011;4593;53.652;10.168;2022-12-24T08:18:48;2.57;;;2.37;;
9115;SDS011;4593;53.652;10.168;2022-12-24T08:21:14;3.70;;;2.97;;
9115;SDS011;4593;53.652;10.168;2022-12-24T08:23:40;5.20;;;2.87;;
9115;SDS011;4593;53.652;10.168;2022-12-24T08:26:07;3.67;;;3.03;;
9115;SDS011;4593;53.652;10.168;2022-12-24T08:28:34;3.47;;;2.90;;
9115;SDS011;4593;53.652;10.168;2022-12-24T08:31:00;2.80;;;2.57;;
9115;SDS011;4593;53.652;10.168;2022-12-24T08:33:27;5.40;;;3.83;;
9115;SDS011;4593;53.652;10.168;2022-12-24T08:35:53;4.13;;;3.37;;
9115;SDS011;4593;53.652;10.168;2022-12-24T08:38:19;4.03;;;3.20;;
9115;SDS011;4593;53.652;10.168;2022-12-24T08:40:46;5.23;;;3.80;;
9115;SDS011;4593;53.652;10.168;2022-12-24T08:43:14;3.30;;;2.80;;
9115;SDS011;4593;53.652;10.168;2022-12-24T08:45:40;6.23;;;3.10;;
9115;SDS011;4593;53.652;10.168;2022-12-24T08:48:06;9.63;;;3.73;;
9115;SDS011;4593;53.652;10.168;2022-12-24T08:50:33;9.73;;;3.80;;
9115;SDS011;4593;53.652;10.168;2022-12-24T08:52:59;6.17;;;3.67;;
9115;SDS011;4593;53.652;10.168;2022-12-24T08:55:24;6.60;;;3.50;;
9115;SDS011;4593;53.652;10.168;2022-12-24T08:57:50;5.50;;;3.30;;
9115;SDS011;4593;53.652;10.168;2022-12-24T09:00:16;5.53;;;3.37;;
9115;SDS011;4593;53.652;10.168;2022-12-24T09:02:42;4.37;;;3.67;;
9115;SDS011;4593;53.652;10.168;2022-12-24T09:05:08;3.80;;;2.87;;
9115;SDS011;4593;53.652;10.168;2022-12-24T09:07:34;3.80;;;3.40;;
9115;SDS011;4593;53.652;10.168;2022-12-24T09:10:00;6.70;;;4.43;;
9115;SDS011;4593;53.652;10.168;2022-12-24T09:12:26;5.73;;;3.83;;
9115;SDS011;4593;53.652;10.168;2022-12-24T09:14:52;6.43;;;3.83;;
9115;SDS011;4593;53.652;10.168;2022-12-24T09:17:18;5.33;;;3.37;;
9115;SDS011;4593;53.652;10.168;2022-12-24T09:19:45;4.47;;;3.70;;
9115;SDS011;4593;53.652;10.168;2022-12-24T09:22:11;6.07;;;4.03;;
9115;SDS011;4593;53.652;10.168;2022-12-24T09:24:36;4.57;;;3.63;;
9115;SDS011;4593;53.652;10.168;2022-12-24T09:27:02;5.07;;;4.23;;
9115;SDS011;4593;53.652;10.168;2022-12-24T09:29:29;7.40;;;3.73;;
9115;SDS011;4593;53.652;10.168;2022-12-24T09:31:55;5.53;;;3.33;;
9115;SDS011;4593;53.652;10.168;2022-12-24T09:34:22;4.87;;;3.43;;
9115;SDS011;4593;53.652;10.168;2022-12-24T09:36:48;5.90;;;4.53;;
9115;SDS011;4593;53.652;10.168;2022-12-24T09:39:16;5.73;;;3.90;;
9115;SDS011;4593;53.652;10.168;2022-12-24T09:41:48;5.90;;;4.17;;
9115;SDS011;4593;53.652;10.168;2022-12-24T09:46:58;5.03;;;3.43;;
9115;SDS011;4593;53.652;10.168;2022-12-24T09:49:29;8.67;;;5.10;;
9115;SDS011;4593;53.652;10.168;2022-12-24T09:52:13;8.97;;;3.97;;
9115;SDS011;4593;53.652;10.168;2022-12-24T09:54:42;5.27;;;3.77;;
9115;SDS011;4593;53.652;10.168;2022-12-24T09:57:29;6.30;;;4.10;;
9115;SDS011;4593;53.652;10.168;2022-12-24T09:59:59;6.33;;;4.40;;
9115;SDS011;4593;53.652;10.168;2022-12-24T10:02:26;5.57;;;4.00;;
9115;SDS011;4593;53.652;10.168;2022-12-24T10:04:52;6.80;;;4.40;;
9115;SDS011;4593;53.652;10.168;2022-12-24T10:10:22;7.77;;;4.10;;
9115;SDS011;4593;53.652;10.168;2022-12-24T10:12:53;6.27;;;4.07;;
9115;SDS011;4593;53.652;10.168;2022-12-24T10:23:29;7.03;;;5.03;;
9115;SDS011;4593;53.652;10.168;2022-12-24T10:26:22;7.30;;;4.97;;
9115;SDS011;4593;53.652;10.168;2022-12-24T10:28:56;9.67;;;5.90;;
9115;SDS011;4593;53.652;10.168;2022-12-24T10:31:26;7.03;;;4.87;;
9115;SDS011;4593;53.652;10.168;2022-12-24T10:34:00;5.73;;;4.17;;
9115;SDS011;4593;53.652;10.168;2022-12-24T10:36:27;7.60;;;5.23;;
9115;SDS011;4593;53.652;10.168;2022-12-24T10:38:54;8.70;;;5.10;;
9115;SDS011;4593;53.652;10.168;2022-12-24T10:41:20;6.30;;;4.53;;
9115;SDS011;4593;53.652;10.168;2022-12-24T10:43:47;8.57;;;5.17;;
9115;SDS011;4593;53.652;10.168;2022-12-24T10:46:18;10.80;;;5.70;;
9115;SDS011;4593;53.652;10.168;2022-12-24T10:48:54;5.30;;;4.33;;
9115;SDS011;4593;53.652;10.168;2022-12-24T10:54:14;9.07;;;5.20;;
9115;SDS011;4593;53.652;10.168;2022-12-24T10:56:42;7.53;;;4.67;;
9115;SDS011;4593;53.652;10.168;2022-12-24T10:59:26;7.93;;;5.00;;
9115;SDS011;4593;53.652;10.168;2022-12-24T11:01:53;9.50;;;5.13;;
9115;SDS011;4593;53.652;10.168;2022-12-24T11:04:24;8.07;;;4.60;;
9115;SDS011;4593;53.652;10.168;2022-12-24T11:06:57;10.27;;;6.43;;
9115;SDS011;4593;53.652;10.168;2022-12-24T11:09:27;8.10;;;5.37;;
9115;SDS011;4593;53.652;10.168;2022-12-24T11:11:54;8.80;;;4.50;;
9115;SDS011;4593;53.652;10.168;2022-12-24T11:14:21;7.90;;;5.57;;
9115;SDS011;4593;53.652;10.168;2022-12-24T11:16:49;9.37;;;4.53;;
9115;SDS011;4593;53.652;10.168;2022-12-24T11:19:18;8.57;;;5.53;;
9115;SDS011;4593;53.652;10.168;2022-12-24T11:21:46;6.40;;;5.00;;
9115;SDS011;4593;53.652;10.168;2022-12-24T11:26:50;8.60;;;4.73;;
9115;SDS011;4593;53.652;10.168;2022-12-24T11:29:23;8.90;;;5.23;;
9115;SDS011;4593;53.652;10.168;2022-12-24T11:31:49;7.03;;;4.80;;
9115;SDS011;4593;53.652;10.168;2022-12-24T11:34:28;6.97;;;4.87;;
9115;SDS011;4593;53.652;10.168;2022-12-24T11:37:08;11.70;;;5.33;;
9115;SDS011;4593;53.652;10.168;2022-12-24T11:39:39;6.27;;;4.20;;
9115;SDS011;4593;53.652;10.168;2022-12-24T11:42:05;6.20;;;4.80;;
9115;SDS011;4593;53.652;10.168;2022-12-24T11:44:32;8.23;;;5.60;;
9115;SDS011;4593;53.652;10.168;2022-12-24T11:46:58;8.77;;;5.90;;
9115;SDS011;4593;53.652;10.168;2022-12-24T11:49:25;8.37;;;4.93;;
9115;SDS011;4593;53.652;10.168;2022-12-24T11:52:35;7.03;;;4.63;;
9115;SDS011;4593;53.652;10.168;2022-12-24T11:57:21;8.07;;;5.37;;
9115;SDS011;4593;53.652;10.168;2022-12-24T11:59:54;9.13;;;4.70;;
9115;SDS011;4593;53.652;10.168;2022-12-24T12:02:22;9.87;;;5.13;;
9115;SDS011;4593;53.652;10.168;2022-12-24T12:04:50;9.43;;;5.20;;
9115;SDS011;4593;53.652;10.168;2022-12-24T12:07:23;7.47;;;4.77;;
9115;SDS011;4593;53.652;10.168;2022-12-24T12:12:39;6.40;;;4.17;;
9115;SDS011;4593;53.652;10.168;2022-12-24T12:17:47;7.50;;;4.77;;
9115;SDS011;4593;53.652;10.168;2022-12-24T12:20:18;8.87;;;4.63;;
9115;SDS011;4593;53.652;10.168;2022-12-24T12:25:22;5.67;;;4.40;;
9115;SDS011;4593;53.652;10.168;2022-12-24T12:27:59;5.03;;;4.40;;
9115;SDS011;4593;53.652;10.168;2022-12-24T12:30:26;6.20;;;4.17;;
9115;SDS011;4593;53.652;10.168;2022-12-24T12:35:42;7.03;;;5.00;;
9115;SDS011;4593;53.652;10.168;2022-12-24T12:38:16;7.33;;;4.57;;
9115;SDS011;4593;53.652;10.168;2022-12-24T12:52:48;6.40;;;4.67;;
9115;SDS011;4593;53.652;10.168;2022-12-24T12:55:20;6.30;;;4.47;;
9115;SDS011;4593;53.652;10.168;2022-12-24T12:57:47;5.57;;;4.37;;
9115;SDS011;4593;53.652;10.168;2022-12-24T13:00:16;6.80;;;4.90;;
9115;SDS011;4593;53.652;10.168;2022-12-24T13:10:54;8.10;;;4.97;;
9115;SDS011;4593;53.652;10.168;2022-12-24T13:21:43;7.00;;;4.83;;
9115;SDS011;4593;53.652;10.168;2022-12-24T13:24:20;7.97;;;5.27;;
9115;SDS011;4593;53.652;10.168;2022-12-24T13:29:28;6.87;;;4.60;;
9115;SDS011;4593;53.652;10.168;2022-12-24T13:34:44;7.10;;;4.77;;
9115;SDS011;4593;53.652;10.168;2022-12-24T13:50:28;9.03;;;5.53;;
9115;SDS011;4593;53.652;10.168;2022-12-24T13:52:55;7.77;;;5.13;;
9115;SDS011;4593;53.652;10.168;2022-12-24T13:55:21;7.87;;;5.07;;
9115;SDS011;4593;53.652;10.168;2022-12-24T13:58:03;11.10;;;4.83;;
9115;SDS011;4593;53.652;10.168;2022-12-24T14:00:33;5.53;;;4.27;;
9115;SDS011;4593;53.652;10.168;2022-12-24T14:03:06;7.20;;;4.67;;
9115;SDS011;4593;53.652;10.168;2022-12-24T14:05:46;10.20;;;4.83;;
9115;SDS011;4593;53.652;10.168;2022-12-24T14:10:41;7.93;;;5.40;;
9115;SDS011;4593;53.652;10.168;2022-12-24T14:19:14;9.43;;;5.07;;
9115;SDS011;4593;53.652;10.168;2022-12-24T14:21:48;8.20;;;5.57;;
9115;SDS011;4593;53.652;10.168;2022-12-24T14:24:36;8.80;;;6.37;;
9115;SDS011;4593;53.652;10.168;2022-12-24T14:29:39;8.17;;;5.27;;
9115;SDS011;4593;53.652;10.168;2022-12-24T14:32:33;10.40;;;5.80;;
9115;SDS011;4593;53.652;10.168;2022-12-24T14:35:06;9.63;;;6.03;;
9115;SDS011;4593;53.652;10.168;2022-12-24T14:37:41;9.33;;;6.00;;
9115;SDS011;4593;53.652;10.168;2022-12-24T14:40:20;7.63;;;5.67;;
9115;SDS011;4593;53.652;10.168;2022-12-24T14:45:38;9.20;;;5.87;;
9115;SDS011;4593;53.652;10.168;2022-12-24T14:54:32;12.10;;;6.70;;
9115;SDS011;4593;53.652;10.168;2022-12-24T14:59:42;8.43;;;5.17;;
9115;SDS011;4593;53.652;10.168;2022-12-24T15:08:02;9.17;;;5.83;;
9115;SDS011;4593;53.652;10.168;2022-12-24T15:10:34;9.77;;;5.83;;
9115;SDS011;4593;53.652;10.168;2022-12-24T15:13:06;11.07;;;6.17;;
9115;SDS011;4593;53.652;10.168;2022-12-24T15:15:41;15.97;;;6.60;;
9115;SDS011;4593;53.652;10.168;2022-12-24T15:18:24;8.93;;;6.80;;
9115;SDS011;4593;53.652;10.168;2022-12-24T15:20:52;13.13;;;7.13;;
9115;SDS011;4593;53.652;10.168;2022-12-24T15:23:24;14.23;;;6.33;;
9115;SDS011;4593;53.652;10.168;2022-12-24T15:26:05;10.87;;;6.97;;
9115;SDS011;4593;53.652;10.168;2022-12-24T15:28:35;9.37;;;6.43;;
9115;SDS011;4593;53.652;10.168;2022-12-24T15:33:37;9.80;;;6.50;;
9115;SDS011;4593;53.652;10.168;2022-12-24T15:36:04;10.77;;;6.07;;
9115;SDS011;4593;53.652;10.168;2022-12-24T15:38:44;12.23;;;6.87;;
9115;SDS011;4593;53.652;10.168;2022-12-24T15:41:20;7.47;;;5.57;;
9115;SDS011;4593;53.652;10.168;2022-12-24T15:43:48;10.13;;;5.80;;
9115;SDS011;4593;53.652;10.168;2022-12-24T15:46:19;9.07;;;5.47;;
9115;SDS011;4593;53.652;10.168;2022-12-24T15:48:46;10.07;;;6.33;;
9115;SDS011;4593;53.652;10.168;2022-12-24T15:51:18;7.27;;;5.03;;
9115;SDS011;4593;53.652;10.168;2022-12-24T15:53:46;15.57;;;7.07;;
9115;SDS011;4593;53.652;10.168;2022-12-24T15:56:26;13.43;;;6.03;;
9115;SDS011;4593;53.652;10.168;2022-12-24T16:01:36;13.13;;;6.10;;
9115;SDS011;4593;53.652;10.168;2022-12-24T16:06:37;12.33;;;6.87;;
9115;SDS011;4593;53.652;10.168;2022-12-24T16:09:30;9.07;;;5.77;;
9115;SDS011;4593;53.652;10.168;2022-12-24T16:11:57;8.87;;;5.57;;
9115;SDS011;4593;53.652;10.168;2022-12-24T16:14:23;8.30;;;5.87;;
9115;SDS011;4593;53.652;10.168;2022-12-24T16:16:50;11.00;;;5.90;;
9115;SDS011;4593;53.652;10.168;2022-12-24T16:19:23;9.20;;;5.10;;
9115;SDS011;4593;53.652;10.168;2022-12-24T16:21:58;15.57;;;6.67;;
9115;SDS011;4593;53.652;10.168;2022-12-24T16:24:44;17.67;;;5.67;;
9115;SDS011;4593;53.652;10.168;2022-12-24T16:27:11;16.80;;;6.23;;
9115;SDS011;4593;53.652;10.168;2022-12-24T16:29:37;10.20;;;5.70;;
9115;SDS011;4593;53.652;10.168;2022-12-24T16:32:03;9.83;;;4.87;;
9115;SDS011;4593;53.652;10.168;2022-12-24T16:34:30;7.90;;;5.30;;
9115;SDS011;4593;53.652;10.168;2022-12-24T16:36:56;6.57;;;4.93;;
9115;SDS011;4593;53.652;10.168;2022-12-24T16:39:32;7.90;;;5.27;;
9115;SDS011;4593;53.652;10.168;2022-12-24T16:42:00;12.10;;;5.67;;
9115;SDS011;4593;53.652;10.168;2022-12-24T16:44:45;12.87;;;5.90;;
9115;SDS011;4593;53.652;10.168;2022-12-24T16:47:21;8.00;;;5.50;;
9115;SDS011;4593;53.652;10.168;2022-12-24T16:49:49;11.40;;;6.23;;
9115;SDS011;4593;53.652;10.168;2022-12-24T16:52:16;17.23;;;6.47;;
9115;SDS011;4593;53.652;10.168;2022-12-24T16:54:46;9.87;;;5.43;;
9115;SDS011;4593;53.652;10.168;2022-12-24T16:57:12;11.37;;;4.97;;
9115;SDS011;4593;53.652;10.168;2022-12-24T16:59:38;14.10;;;5.97;;
9115;SDS011;4593;53.652;10.168;2022-12-24T17:02:04;12.80;;;5.83;;
9115;SDS011;4593;53.652;10.168;2022-12-24T17:04:31;9.30;;;5.07;;
9115;SDS011;4593;53.652;10.168;2022-12-24T17:06:57;11.13;;;7.10;;
9115;SDS011;4593;53.652;10.168;2022-12-24T17:09:23;17.27;;;5.80;;
9115;SDS011;4593;53.652;10.168;2022-12-24T17:11:49;7.93;;;4.93;;
9115;SDS011;4593;53.652;10.168;2022-12-24T17:14:14;9.27;;;4.90;;
9115;SDS011;4593;53.652;10.168;2022-12-24T17:16:40;10.43;;;5.60;;
9115;SDS011;4593;53.652;10.168;2022-12-24T17:19:06;5.90;;;4.17;;
9115;SDS011;4593;53.652;10.168;2022-12-24T17:21:32;7.13;;;4.60;;
9115;SDS011;4593;53.652;10.168;2022-12-24T17:23:58;13.50;;;4.73;;